Time;durP1;ratioP1;P1;durP2;ratioP2;P2;SDS_P1;SDS_P2;PMS_P1;PMS_P2;Temp;Humidity;BMP_temperature;BMP_pressure;BME280_temperature;BME280_humidity;BME280_pressure;Samples;Min_cycle;Max_cycle;Signal;HPM_P1;HPM_P2
2022/04/21 00:00:52;;;;;;;;;;;;;;;21.98;36.89;95123.13;2066877;28;1522;-72
2022/04/21 00:01:54;;;;;;;;;;;;;;;21.98;36.95;95123.13;2060897;28;1537;-74
2022/04/21 00:02:55;;;;;;;;;;;;;;;21.98;37.06;95119.63;2058507;28;978;-73
2022/04/21 00:03:57;;;;;;;;;;;;;;;21.98;37.16;95122.31;2053578;28;1465;-70
2022/04/21 00:04:59;;;;;;;;;;;;;;;21.96;36.95;95119.81;2052025;28;1473;-77
2022/04/21 00:06:01;;;;;;;;;;;;;;;21.97;37.01;95121.50;2071754;28;1670;-67
2022/04/21 00:07:02;;;;;;;;;;;;;;;22.01;37.03;95116.50;2067372;28;1417;-67
2022/04/21 00:08:04;;;;;;;;;;;;;;;22.02;36.92;95113.59;2065821;28;1507;-68
2022/04/21 00:09:05;;;;;;;;;;;;;;;22.03;36.90;95120.63;2066958;28;1098;-68
2022/04/21 00:10:08;;;;;;;;;;;;;;;22.00;37.04;95121.03;2065472;28;1560;-66
2022/04/21 00:11:09;;;;;;;;;;;;;;;22.01;36.98;95119.19;2061087;28;1619;-70
2022/04/21 00:12:11;;;;;;;;;;;;;;;22.02;36.92;95124.31;2069642;28;1479;-69
2022/04/21 00:13:13;;;;;;;;;;;;;;;22.02;37.17;95113.59;2064286;28;1615;-68
2022/04/21 00:14:14;;;;;;;;;;;;;;;22.02;37.19;95118.94;2070146;28;1821;-67
2022/04/21 00:15:16;;;;;;;;;;;;;;;22.00;37.19;95126.41;2068865;28;1509;-68
2022/04/21 00:16:17;;;;;;;;;;;;;;;22.03;37.19;95115.25;2061869;28;1169;-67
2022/04/21 00:17:19;;;;;;;;;;;;;;;21.98;37.37;95120.44;2065233;28;1455;-68
2022/04/21 00:18:21;;;;;;;;;;;;;;;22.00;37.31;95115.69;2057826;28;1263;-69
2022/04/21 00:19:22;;;;;;;;;;;;;;;21.99;37.11;95124.75;2061479;28;1184;-68
2022/04/21 00:20:24;;;;;;;;;;;;;;;21.98;37.25;95125.78;2064873;28;1504;-69
2022/04/21 00:23:25;;;;;;;;;;;;;;;21.99;37.46;95126.59;2065106;28;1458;-69
2022/04/21 00:24:07;;;;;;;;;;;;;;;22.04;37.11;95116.88;2058537;28;1184;-68
2022/04/21 00:25:08;;;;;;;;;;;;;;;22.04;37.07;95116.88;2067729;28;1661;-68
2022/04/21 00:26:12;;;;;;;;;;;;;;;22.02;37.12;95126.16;2074767;28;1081;-69
2022/04/21 00:27:13;;;;;;;;;;;;;;;22.00;37.42;95129.06;2058553;28;1025;-68
2022/04/21 00:28:15;;;;;;;;;;;;;;;21.99;37.60;95132.78;2054102;28;2054;-66
2022/04/21 00:29:17;;;;;;;;;;;;;;;22.00;37.34;95126.41;2057534;28;1523;-68
2022/04/21 00:30:18;;;;;;;;;;;;;;;22.02;37.49;95128.84;2066143;28;1523;-72
2022/04/21 00:31:20;;;;;;;;;;;;;;;22.00;37.47;95126.41;2066562;28;1557;-72
2022/04/21 00:32:22;;;;;;;;;;;;;;;21.98;37.44;95128.47;2066778;28;1729;-73
2022/04/21 00:33:23;;;;;;;;;;;;;;;21.99;37.49;95132.78;2067798;28;1529;-73
2022/04/21 00:34:25;;;;;;;;;;;;;;;21.96;37.56;95124.38;2066422;28;1520;-72
2022/04/21 00:35:26;;;;;;;;;;;;;;;21.97;37.49;95124.16;2065715;28;1459;-72
2022/04/21 00:36:28;;;;;;;;;;;;;;;21.96;37.83;95127.03;2065780;28;1483;-73
2022/04/21 00:37:30;;;;;;;;;;;;;;;21.98;37.59;95133.81;2066213;28;1045;-72
2022/04/21 00:38:31;;;;;;;;;;;;;;;21.99;37.79;95130.09;2060530;28;1046;-66
2022/04/21 00:39:33;;;;;;;;;;;;;;;22.08;37.61;95133.31;2063024;28;1504;-69
2022/04/21 00:40:35;;;;;;;;;;;;;;;22.16;37.57;95129.56;2072521;28;1518;-69
2022/04/21 00:41:37;;;;;;;;;;;;;;;22.16;37.09;95129.56;2066041;28;1640;-68
2022/04/21 00:42:38;;;;;;;;;;;;;;;22.22;37.13;95123.31;2068338;28;1625;-70
2022/04/21 00:43:40;;;;;;;;;;;;;;;22.24;37.00;95126.63;2057511;28;1781;-69
2022/04/21 00:44:41;;;;;;;;;;;;;;;22.22;37.29;95134.84;2057987;28;1177;-69
2022/04/21 00:45:43;;;;;;;;;;;;;;;22.21;37.08;95135.91;2066670;28;1671;-68
2022/04/21 00:46:45;;;;;;;;;;;;;;;22.25;37.20;95133.59;2066435;28;1077;-68
2022/04/21 00:47:46;;;;;;;;;;;;;;;22.24;37.20;95131.97;2065849;28;1914;-69
2022/04/21 00:48:48;;;;;;;;;;;;;;;22.24;37.23;95129.28;2065946;28;1215;-69
2022/04/21 00:49:50;;;;;;;;;;;;;;;22.23;37.31;95127.66;2060037;28;1473;-69
2022/04/21 00:50:51;;;;;;;;;;;;;;;22.27;36.97;95129.66;2066075;28;1715;-69
2022/04/21 00:51:54;;;;;;;;;;;;;;;22.28;37.16;95131.31;2074518;28;1110;-69
2022/04/21 00:52:56;;;;;;;;;;;;;;;22.29;37.16;95132.94;2066237;28;1808;-68
2022/04/21 00:53:59;;;;;;;;;;;;;;;22.29;37.15;95130.28;2066663;28;1037;-69
2022/04/21 00:55:00;;;;;;;;;;;;;;;22.26;36.96;95135.25;2065748;28;1089;-68
2022/04/21 00:56:02;;;;;;;;;;;;;;;22.24;37.35;95132.78;2065324;28;1443;-68
2022/04/21 00:57:04;;;;;;;;;;;;;;;22.21;37.30;95133.22;2066113;28;1730;-68
2022/04/21 00:58:07;;;;;;;;;;;;;;;22.24;37.27;95134.63;2065553;28;1488;-68
2022/04/21 00:59:09;;;;;;;;;;;;;;;22.27;37.09;95131.53;2066262;28;1726;-69
2022/04/21 01:00:11;;;;;;;;;;;;;;;22.27;37.03;95131.53;2066026;28;1539;-67
2022/04/21 01:02:46;;;;;;;;;;;;;;;22.33;37.25;95133.31;2061953;28;1531;-69
2022/04/21 01:03:48;;;;;;;;;;;;;;;22.31;37.11;95128.19;2058384;28;1074;-70
2022/04/21 01:04:49;;;;;;;;;;;;;;;22.28;37.06;95122.44;2049314;29;1033;-70
2022/04/21 01:05:51;;;;;;;;;;;;;;;22.32;36.79;95129.00;2050761;28;1525;-70
2022/04/21 01:06:53;;;;;;;;;;;;;;;22.30;37.18;95120.38;2067065;28;1556;-70
2022/04/21 01:07:59;;;;;;;;;;;;;;;22.31;37.12;95132.75;2063041;28;1910;-70
2022/04/21 01:09:00;;;;;;;;;;;;;;;22.28;37.17;95127.78;2066228;28;1336;-70
2022/04/21 01:10:02;;;;;;;;;;;;;;;22.29;37.15;95129.44;2074243;28;1221;-70
2022/04/21 01:11:04;;;;;;;;;;;;;;;22.31;37.29;95124.72;2059697;28;1660;-70
2022/04/21 01:12:08;;;;;;;;;;;;;;;22.29;37.07;95118.75;2052803;28;1145;-70
2022/04/21 01:13:11;;;;;;;;;;;;;;;22.33;36.89;95120.75;2061019;28;1610;-67
2022/04/21 01:14:13;;;;;;;;;;;;;;;22.36;36.86;95116.81;2066239;28;1082;-66
2022/04/21 01:15:15;;;;;;;;;;;;;;;22.38;37.04;95122.78;2065914;28;1488;-68
2022/04/21 01:16:16;;;;;;;;;;;;;;;22.40;36.52;95120.72;2066301;28;1629;-66
2022/04/21 01:17:30;;;;;;;;;;;;;;;22.40;36.72;95120.72;2066135;28;969;-66
2022/04/21 01:18:31;;;;;;;;;;;;;;;22.43;36.72;95120.25;2066381;28;930;-66
2022/04/21 01:19:33;;;;;;;;;;;;;;;22.43;36.75;95108.75;2066231;28;1405;-66
2022/04/21 01:20:35;;;;;;;;;;;;;;;22.42;36.61;95107.91;2057313;28;1038;-66
2022/04/21 01:21:37;;;;;;;;;;;;;;;22.43;36.61;95112.22;2057543;28;1129;-66
2022/04/21 01:22:38;;;;;;;;;;;;;;;22.40;36.88;95101.16;2064143;28;1572;-67
2022/04/21 01:23:40;;;;;;;;;;;;;;;22.39;36.96;95108.34;2050503;28;1130;-67
2022/04/21 01:24:41;;;;;;;;;;;;;;;22.39;36.79;95102.97;2056437;28;1614;-67
2022/04/21 01:25:43;;;;;;;;;;;;;;;22.41;36.84;95106.28;2059224;28;1531;-67
2022/04/21 01:26:46;;;;;;;;;;;;;;;22.40;36.68;95104.66;2065758;28;1614;-65
2022/04/21 01:27:49;;;;;;;;;;;;;;;22.42;36.62;95107.09;2066004;28;1374;-65
2022/04/21 01:28:51;;;;;;;;;;;;;;;22.41;36.56;95106.28;2066067;28;1033;-66
2022/04/21 01:29:53;;;;;;;;;;;;;;;22.36;36.94;95103.44;2066169;28;1240;-66
2022/04/21 01:30:55;;;;;;;;;;;;;;;22.35;36.83;95099.13;2066092;28;1191;-65
2022/04/21 01:31:56;;;;;;;;;;;;;;;22.34;36.74;95089.47;2066026;28;1098;-66
2022/04/21 01:32:58;;;;;;;;;;;;;;;22.36;37.04;95092.72;2064661;28;1490;-65
2022/04/21 01:34:00;;;;;;;;;;;;;;;22.37;36.82;95093.53;2066010;28;1117;-66
2022/04/21 01:35:08;;;;;;;;;;;;;;;22.37;36.97;95094.38;2051060;28;1493;-65
2022/04/21 01:36:10;;;;;;;;;;;;;;;22.38;36.76;95082.63;2058366;28;1085;-66
2022/04/21 01:41:12;;;;;;;;;;;;;;;22.40;36.88;95077.06;2069102;28;1625;-67
2022/04/21 01:42:14;;;;;;;;;;;;;;;22.39;36.85;95076.22;2065439;28;1869;-67
2022/04/21 01:43:16;;;;;;;;;;;;;;;22.37;36.77;95072.13;2064215;28;1544;-66
2022/04/21 01:44:17;;;;;;;;;;;;;;;22.35;37.08;95075.84;2068705;28;2036;-67
2022/04/21 01:45:19;;;;;;;;;;;;;;;22.33;37.09;95077.09;2074165;28;1044;-68
2022/04/21 01:46:21;;;;;;;;;;;;;;;22.34;37.03;95076.91;2059423;28;1127;-66
2022/04/21 01:47:22;;;;;;;;;;;;;;;22.37;36.90;95085.50;2055022;28;1300;-67
2022/04/21 01:48:24;;;;;;;;;;;;;;;22.38;36.90;95077.25;2065078;28;1903;-67
2022/04/21 01:49:25;;;;;;;;;;;;;;;22.38;36.89;95073.78;2071286;28;1674;-67
2022/04/21 01:50:27;;;;;;;;;;;;;;;22.35;36.99;95075.84;2065202;28;1180;-67
2022/04/21 01:51:29;;;;;;;;;;;;;;;22.35;36.92;95075.03;2057273;28;1041;-67
2022/04/21 01:52:31;;;;;;;;;;;;;;;22.36;36.99;95071.31;2062689;28;1651;-68
2022/04/21 01:53:32;;;;;;;;;;;;;;;22.35;36.92;95067.81;2065893;28;1721;-67
2022/04/21 01:54:34;;;;;;;;;;;;;;;22.36;36.74;95071.31;2065791;28;1509;-66
2022/04/21 01:55:35;;;;;;;;;;;;;;;22.37;37.16;95067.59;2065433;28;1439;-67
2022/04/21 01:56:37;;;;;;;;;;;;;;;22.39;36.85;95070.03;2064674;28;1440;-67
2022/04/21 01:57:38;;;;;;;;;;;;;;;22.37;36.80;95064.09;2061019;28;1560;-67
2022/04/21 01:58:41;;;;;;;;;;;;;;;22.37;37.11;95067.59;2061320;28;1642;-65
2022/04/21 01:59:42;;;;;;;;;;;;;;;22.37;37.05;95067.59;2065875;28;1150;-66
2022/04/21 02:00:44;;;;;;;;;;;;;;;22.35;36.99;95075.84;2065823;28;1665;-66
2022/04/21 02:01:45;;;;;;;;;;;;;;;22.27;37.10;95065.41;2064112;28;1510;-69
2022/04/21 02:02:47;;;;;;;;;;;;;;;22.24;37.42;95067.72;2069330;28;1720;-68
2022/04/21 02:03:49;;;;;;;;;;;;;;;22.21;37.18;95065.50;2065711;28;1544;-67
2022/04/21 02:04:50;;;;;;;;;;;;;;;22.18;37.61;95065.94;2064833;28;1432;-70
2022/04/21 02:05:52;;;;;;;;;;;;;;;22.16;37.46;95062.66;2057606;28;1161;-70
2022/04/21 02:06:53;;;;;;;;;;;;;;;22.12;37.57;95071.13;2057088;28;1161;-69
2022/04/21 02:07:55;;;;;;;;;;;;;;;22.11;37.88;95064.16;2066030;28;1172;-69
2022/04/21 02:08:58;;;;;;;;;;;;;;;22.15;37.68;95067.19;2060524;28;1907;-72
2022/04/21 02:09:59;;;;;;;;;;;;;;;22.16;37.75;95073.34;2061850;28;1577;-73
2022/04/21 02:11:01;;;;;;;;;;;;;;;22.12;37.49;95065.78;2066224;28;1701;-69
2022/04/21 02:12:02;;;;;;;;;;;;;;;22.11;37.72;95064.16;2067545;28;1700;-68
2022/04/21 02:13:04;;;;;;;;;;;;;;;22.12;37.58;95063.09;2065424;28;1559;-68
2022/04/21 02:14:06;;;;;;;;;;;;;;;22.11;37.79;95060.66;2062077;28;1567;-69
2022/04/21 02:15:08;;;;;;;;;;;;;;;22.11;37.62;95061.47;2052618;28;1558;-71
2022/04/21 02:16:10;;;;;;;;;;;;;;;22.08;37.81;95055.72;2057523;28;995;-69
2022/04/21 02:17:11;;;;;;;;;;;;;;;22.09;37.78;95055.50;2065685;28;1665;-68
2022/04/21 02:18:13;;;;;;;;;;;;;;;22.11;37.90;95057.97;2065340;28;1512;-71
2022/04/21 02:19:15;;;;;;;;;;;;;;;22.11;37.77;95056.13;2067417;28;1152;-71
2022/04/21 02:20:17;;;;;;;;;;;;;;;22.10;37.75;95051.78;2054629;28;1497;-70
2022/04/21 02:21:18;;;;;;;;;;;;;;;22.09;37.78;95052.84;2052540;28;1480;-70
2022/04/21 02:22:20;;;;;;;;;;;;;;;22.11;37.63;95048.09;2064514;28;1500;-70
2022/04/21 02:23:22;;;;;;;;;;;;;;;22.11;37.70;95045.41;2065283;28;1580;-70
2022/04/21 02:24:24;;;;;;;;;;;;;;;22.10;37.92;95045.63;2056442;28;1644;-71
2022/04/21 02:25:26;;;;;;;;;;;;;;;22.07;37.97;95057.56;2052696;28;1817;-69
2022/04/21 02:26:27;;;;;;;;;;;;;;;22.05;38.13;95054.31;2064205;28;1526;-69
2022/04/21 02:27:29;;;;;;;;;;;;;;;22.08;37.94;95056.56;2056977;28;1030;-71
2022/04/21 02:28:30;;;;;;;;;;;;;;;22.08;38.05;95059.22;2057321;28;1993;-69
2022/04/21 02:29:32;;;;;;;;;;;;;;;22.06;38.32;95052.47;2064794;28;1122;-69
2022/04/21 02:30:34;;;;;;;;;;;;;;;22.07;38.09;95052.22;2065273;28;1534;-71
2022/04/21 02:31:36;;;;;;;;;;;;;;;22.10;37.96;95059.00;2052958;28;1666;-67
2022/04/21 02:32:38;;;;;;;;;;;;;;;22.08;38.05;95053.03;2052097;28;1751;-68
2022/04/21 02:33:39;;;;;;;;;;;;;;;22.07;38.06;95054.91;2056912;28;978;-68
2022/04/21 02:34:41;;;;;;;;;;;;;;;22.09;37.93;95058.19;2055835;28;1715;-69
2022/04/21 02:35:43;;;;;;;;;;;;;;;22.07;38.19;95052.22;2057121;28;1110;-70
2022/04/21 02:36:44;;;;;;;;;;;;;;;22.08;38.16;95059.22;2066996;28;1662;-72
2022/04/21 02:37:46;;;;;;;;;;;;;;;22.06;38.67;95061.31;2071006;28;1765;-74
2022/04/21 02:38:48;;;;;;;;;;;;;;;22.06;38.12;95058.63;2063325;28;1592;-74
2022/04/21 02:39:51;;;;;;;;;;;;;;;22.06;38.27;95060.50;2066425;28;1463;-74
2022/04/21 02:40:52;;;;;;;;;;;;;;;22.05;38.15;95057.00;2064261;28;1547;-73
2022/04/21 02:41:55;;;;;;;;;;;;;;;22.07;38.18;95059.44;2065713;28;1153;-73
2022/04/21 02:42:56;;;;;;;;;;;;;;;22.04;38.37;95055.34;2061063;28;1026;-71
2022/04/21 02:43:59;;;;;;;;;;;;;;;22.03;38.41;95059.06;2051743;28;1529;-73
2022/04/21 02:45:01;;;;;;;;;;;;;;;22.06;38.45;95066.66;2056776;28;1451;-73
2022/04/21 02:46:02;;;;;;;;;;;;;;;22.04;38.22;95065.22;2056611;28;1454;-73
2022/04/21 02:47:05;;;;;;;;;;;;;;;22.05;38.43;95062.34;2057624;28;1798;-73
2022/04/21 02:48:07;;;;;;;;;;;;;;;22.06;38.32;95069.34;2072472;28;1687;-67
2022/04/21 02:49:09;;;;;;;;;;;;;;;22.07;38.13;95068.28;2065180;28;1887;-73
2022/04/21 02:50:12;;;;;;;;;;;;;;;22.06;38.38;95076.53;2065677;28;1135;-73
2022/04/21 02:51:14;;;;;;;;;;;;;;;22.08;38.05;95069.09;2064790;28;1480;-73
2022/04/21 02:52:15;;;;;;;;;;;;;;;22.06;38.43;95072.00;2056558;28;1466;-73
2022/04/21 02:53:18;;;;;;;;;;;;;;;22.03;38.32;95069.78;2056373;28;1642;-71
2022/04/21 02:58:22;;;;;;;;;;;;;;;22.05;38.43;95073.06;2065824;28;1006;-73
2022/04/21 02:59:24;;;;;;;;;;;;;;;22.02;38.61;95069.97;2064737;28;1497;-73
2022/04/21 03:00:26;;;;;;;;;;;;;;;22.01;38.52;95077.19;2065595;28;1048;-73
2022/04/21 03:01:28;;;;;;;;;;;;;;;22.02;38.39;95065.44;2069198;28;1692;-73
2022/04/21 03:02:30;;;;;;;;;;;;;;;22.02;38.54;95070.78;2058612;28;1679;-73
2022/04/21 03:03:31;;;;;;;;;;;;;;;22.04;38.36;95066.06;2056214;28;1543;-73
2022/04/21 03:04:33;;;;;;;;;;;;;;;22.05;38.47;95074.88;2070980;28;1483;-71
2022/04/21 03:05:34;;;;;;;;;;;;;;;22.02;38.56;95073.47;2060656;28;1481;-72
2022/04/21 03:06:36;;;;;;;;;;;;;;;22.01;38.63;95074.50;2059871;28;1704;-68
2022/04/21 03:07:39;;;;;;;;;;;;;;;22.04;38.40;95073.25;2064936;28;1810;-71
2022/04/21 03:08:40;;;;;;;;;;;;;;;22.06;38.49;95080.03;2065727;28;1098;-71
2022/04/21 03:09:42;;;;;;;;;;;;;;;22.06;38.35;95072.00;2064795;28;1981;-72
2022/04/21 03:10:43;;;;;;;;;;;;;;;22.03;38.53;95079.66;2063369;28;1553;-68
2022/04/21 03:11:48;;;;;;;;;;;;;;;22.03;38.72;95077.81;2065255;28;1014;-72
2022/04/21 03:12:49;;;;;;;;;;;;;;;22.03;38.74;95083.16;2065334;28;1544;-73
2022/04/21 03:13:51;;;;;;;;;;;;;;;22.01;38.82;95079.88;2067072;28;1495;-69
2022/04/21 03:14:53;;;;;;;;;;;;;;;22.02;39.52;95075.31;2059487;28;1634;-68
2022/04/21 03:15:55;;;;;;;;;;;;;;;22.04;38.25;95074.06;2056715;28;1453;-67
2022/04/21 03:16:57;;;;;;;;;;;;;;;22.02;37.01;95081.50;2063126;28;1056;-67
2022/04/21 03:17:59;;;;;;;;;;;;;;;22.03;37.08;95080.47;2061336;28;1466;-71
2022/04/21 03:19:00;;;;;;;;;;;;;;;21.97;38.32;95072.47;2067067;28;1443;-71
2022/04/21 03:20:02;;;;;;;;;;;;;;;22.00;38.17;95074.75;2070951;28;1472;-71
2022/04/21 03:25:06;;;;;;;;;;;;;;;22.07;38.06;95073.63;2066834;28;1769;-72
2022/04/21 03:26:14;;;;;;;;;;;;;;;22.09;38.03;95068.88;2064766;28;1695;-71
2022/04/21 03:27:16;;;;;;;;;;;;;;;22.08;38.17;95069.94;2056973;28;1513;-70
2022/04/21 03:28:17;;;;;;;;;;;;;;;22.07;38.40;95062.94;2054147;28;1087;-69
2022/04/21 03:29:19;;;;;;;;;;;;;;;22.10;38.19;95065.16;2060830;28;1937;-70
2022/04/21 03:30:21;;;;;;;;;;;;;;;22.11;38.21;95066.00;2065023;28;1630;-67
2022/04/21 03:31:23;;;;;;;;;;;;;;;22.09;38.67;95065.41;2066198;28;1520;-74
2022/04/21 03:32:26;;;;;;;;;;;;;;;20.22;30.99;95070.81;2058560;28;998;-68
2022/04/21 03:33:28;;;;;;;;;;;;;;;17.70;31.67;95073.38;2057920;28;1525;-69
2022/04/21 03:34:31;;;;;;;;;;;;;;;16.20;32.41;95073.94;2067221;28;1086;-68
2022/04/21 03:35:33;;;;;;;;;;;;;;;15.18;33.18;95078.78;2066428;28;1578;-68
2022/04/21 03:36:35;;;;;;;;;;;;;;;14.71;33.64;95085.03;2057930;28;1641;-69
2022/04/21 03:37:36;;;;;;;;;;;;;;;14.38;33.67;95071.09;2057788;28;1586;-67
2022/04/21 03:38:39;;;;;;;;;;;;;;;13.97;34.82;95074.69;2066062;28;1434;-69
2022/04/21 03:39:41;;;;;;;;;;;;;;;13.84;34.15;95075.19;2062121;28;1666;-70
2022/04/21 03:40:42;;;;;;;;;;;;;;;13.45;34.53;95075.03;2066334;28;1534;-68
2022/04/21 03:41:44;;;;;;;;;;;;;;;13.36;34.69;95070.75;2066451;28;1188;-70
2022/04/21 03:42:46;;;;;;;;;;;;;;;12.90;35.45;95075.66;2060674;28;1637;-70
2022/04/21 03:43:47;;;;;;;;;;;;;;;12.59;35.94;95084.16;2057457;28;1481;-70
2022/04/21 03:44:49;;;;;;;;;;;;;;;12.41;36.16;95078.16;2057746;28;1587;-70
2022/04/21 03:45:50;;;;;;;;;;;;;;;12.06;37.16;95077.31;2066341;28;1658;-70
2022/04/21 03:46:57;;;;;;;;;;;;;;;12.32;36.49;95074.69;2059409;28;1452;-70
2022/04/21 03:47:58;;;;;;;;;;;;;;;12.09;36.67;95069.13;2058266;28;1532;-70
2022/04/21 03:49:00;;;;;;;;;;;;;;;12.19;36.32;95072.44;2066943;28;986;-71
2022/04/21 03:50:01;;;;;;;;;;;;;;;12.06;36.60;95072.03;2066828;28;1906;-71
2022/04/21 03:51:03;;;;;;;;;;;;;;;11.89;36.77;95075.56;2063522;28;1963;-69
2022/04/21 03:52:05;;;;;;;;;;;;;;;11.95;36.91;95074.94;2062955;28;1234;-70
2022/04/21 03:53:07;;;;;;;;;;;;;;;11.85;36.87;95071.59;2066488;28;1454;-72
2022/04/21 03:54:08;;;;;;;;;;;;;;;11.60;37.30;95071.44;2058413;28;1300;-70
2022/04/21 03:55:11;;;;;;;;;;;;;;;11.56;37.20;95072.75;2057877;28;1456;-68
2022/04/21 03:56:13;;;;;;;;;;;;;;;11.53;37.29;95073.06;2057728;28;1581;-69
2022/04/21 03:57:14;;;;;;;;;;;;;;;11.41;38.13;95075.09;2057466;28;1660;-73
2022/04/21 03:58:16;;;;;;;;;;;;;;;11.69;37.66;95065.25;2066668;28;1897;-76
2022/04/21 03:59:18;;;;;;;;;;;;;;;11.79;37.56;95073.88;2066409;28;1048;-75
2022/04/21 04:00:20;;;;;;;;;;;;;;;11.95;36.62;95074.94;2065974;28;1479;-73
2022/04/21 04:01:22;;;;;;;;;;;;;;;12.10;36.31;95073.38;2058077;28;1173;-76
2022/04/21 04:02:23;;;;;;;;;;;;;;;12.08;36.26;95085.88;2053837;28;1233;-72
2022/04/21 04:03:25;;;;;;;;;;;;;;;11.93;36.79;95087.44;2062792;28;1014;-76
2022/04/21 04:04:26;;;;;;;;;;;;;;;11.91;37.09;95092.03;2057053;28;1504;-76
2022/04/21 04:05:28;;;;;;;;;;;;;;;11.85;37.06;95084.78;2060090;28;1571;-75
2022/04/21 04:10:52;;;;;;;;;;;;;;;11.60;37.58;95087.22;2073046;28;1762;-72
2022/04/21 04:11:54;;;;;;;;;;;;;;;11.50;37.67;95089.16;2058741;28;1541;-74
2022/04/21 04:12:55;;;;;;;;;;;;;;;11.44;38.20;95087.13;2064512;28;1508;-73
2022/04/21 04:13:57;;;;;;;;;;;;;;;11.50;37.69;95091.78;2057112;28;1465;-68
2022/04/21 04:15:01;;;;;;;;;;;;;;;11.65;38.04;95084.97;2068640;28;1691;-73
2022/04/21 04:16:05;;;;;;;;;;;;;;;12.41;36.82;95086.06;2058684;28;1356;-71
2022/04/21 04:17:08;;;;;;;;;;;;;;;12.76;35.63;95077.13;2065319;28;1660;-71
2022/04/21 04:18:09;;;;;;;;;;;;;;;13.06;35.17;95074.84;2065130;28;1580;-71
2022/04/21 04:19:11;;;;;;;;;;;;;;;13.22;34.64;95081.97;2068625;28;1137;-72
2022/04/21 04:20:12;;;;;;;;;;;;;;;13.33;34.84;95077.19;2069749;28;1485;-69
2022/04/21 04:21:14;;;;;;;;;;;;;;;13.49;34.40;95075.56;2065668;28;1745;-69
2022/04/21 04:22:15;;;;;;;;;;;;;;;13.57;34.18;95084.31;2067237;28;1689;-71
2022/04/21 04:23:18;;;;;;;;;;;;;;;13.64;34.10;95083.66;2066833;28;1512;-72
2022/04/21 04:24:19;;;;;;;;;;;;;;;13.72;34.13;95089.75;2065256;28;1647;-71
2022/04/21 04:25:21;;;;;;;;;;;;;;;13.64;34.07;95078.38;2051360;28;1739;-69
2022/04/21 04:26:22;;;;;;;;;;;;;;;13.69;34.01;95081.34;2057073;28;1481;-73
2022/04/21 04:27:24;;;;;;;;;;;;;;;13.64;34.14;95078.38;2065503;28;1565;-73
2022/04/21 04:28:26;;;;;;;;;;;;;;;13.64;33.91;95078.38;2065730;28;1726;-71
2022/04/21 04:29:28;;;;;;;;;;;;;;;13.56;34.31;95080.00;2066154;28;1303;-72
2022/04/21 04:30:30;;;;;;;;;;;;;;;13.45;34.36;95072.41;2065060;28;1926;-68
2022/04/21 04:31:33;;;;;;;;;;;;;;;13.29;34.59;95069.78;2066518;28;1569;-73
2022/04/21 04:32:35;;;;;;;;;;;;;;;13.14;34.72;95075.72;2062252;28;1524;-71
2022/04/21 04:33:37;;;;;;;;;;;;;;;13.06;34.72;95069.56;2057864;28;1086;-69
2022/04/21 04:34:38;;;;;;;;;;;;;;;13.02;34.98;95070.91;2049732;28;1177;-72
2022/04/21 04:35:40;;;;;;;;;;;;;;;12.90;34.85;95070.38;2057776;28;1114;-71
2022/04/21 04:36:41;;;;;;;;;;;;;;;12.86;35.11;95076.97;2057872;28;1153;-69
2022/04/21 04:37:43;;;;;;;;;;;;;;;12.98;34.53;95067.78;2065550;28;1224;-72
2022/04/21 04:38:45;;;;;;;;;;;;;;;12.90;34.68;95065.94;2066084;28;987;-71
2022/04/21 04:39:47;;;;;;;;;;;;;;;12.73;35.07;95059.81;2066389;28;1010;-68
2022/04/21 04:40:48;;;;;;;;;;;;;;;12.80;34.96;95061.78;2066199;28;1564;-72
2022/04/21 04:43:10;;;;;;;;;;;;;;;14.55;33.71;95067.38;2066395;28;1172;-69
2022/04/21 04:44:12;;;;;;;;;;;;;;;15.31;32.76;95062.34;2066488;28;1184;-73
2022/04/21 04:46:37;;;;;;;;;;;;;;;16.53;31.60;95069.09;2066445;28;847;-67
2022/04/21 04:47:39;;;;;;;;;;;;;;;16.80;31.78;95076.56;2053374;28;1196;-71
2022/04/21 04:48:41;;;;;;;;;;;;;;;15.07;30.50;95077.38;2053567;28;1154;-68
2022/04/21 04:49:42;;;;;;;;;;;;;;;13.23;34.51;95073.06;2066285;28;1110;-72
2022/04/21 04:50:46;;;;;;;;;;;;;;;13.61;34.89;95080.34;2066308;28;1902;-70
2022/04/21 04:51:48;;;;;;;;;;;;;;;14.37;34.22;95080.84;2066196;28;1097;-70
2022/04/21 04:52:55;;;;;;;;;;;;;;;15.08;33.74;95083.47;2066576;28;1133;-69
2022/04/21 04:53:57;;;;;;;;;;;;;;;15.69;33.51;95087.00;2066274;28;1121;-69
2022/04/21 04:54:58;;;;;;;;;;;;;;;16.13;32.46;95083.59;2057617;28;1746;-69
2022/04/21 04:56:00;;;;;;;;;;;;;;;16.45;32.14;95087.75;2057838;28;1286;-70
2022/04/21 04:57:02;;;;;;;;;;;;;;;16.70;32.02;95085.63;2065781;28;1157;-70
2022/04/21 04:58:03;;;;;;;;;;;;;;;16.89;31.63;95089.53;2066226;28;1650;-70
2022/04/21 04:59:05;;;;;;;;;;;;;;;17.05;31.65;95085.03;2061655;28;1101;-70
2022/04/21 05:00:08;;;;;;;;;;;;;;;17.17;31.45;95084.31;2062110;28;1243;-70
2022/04/21 05:01:09;;;;;;;;;;;;;;;17.31;31.29;95089.78;2066185;28;1081;-70
2022/04/21 05:02:11;;;;;;;;;;;;;;;17.39;31.29;95087.81;2057242;28;1105;-70
2022/04/21 05:03:13;;;;;;;;;;;;;;;17.47;31.24;95092.19;2057952;28;986;-70
2022/04/21 05:04:15;;;;;;;;;;;;;;;17.54;31.40;95093.06;2066351;28;1913;-70
2022/04/21 05:05:16;;;;;;;;;;;;;;;17.60;31.42;95086.16;2065932;28;1165;-67
2022/04/21 05:06:18;;;;;;;;;;;;;;;17.63;31.45;95086.59;2066566;28;1025;-70
2022/04/21 05:07:20;;;;;;;;;;;;;;;17.70;31.38;95086.69;2066189;28;1301;-70
2022/04/21 05:08:21;;;;;;;;;;;;;;;17.76;31.35;95085.13;2066395;28;1105;-71
2022/04/21 05:09:24;;;;;;;;;;;;;;;17.80;31.26;95083.72;2065103;28;1137;-70
2022/04/21 05:10:28;;;;;;;;;;;;;;;17.83;31.33;95078.81;2052912;28;1997;-70
2022/04/21 05:11:31;;;;;;;;;;;;;;;17.88;31.43;95080.91;2053178;28;1049;-69
2022/04/21 05:12:32;;;;;;;;;;;;;;;17.92;31.50;95076.84;2065598;28;1110;-69
2022/04/21 05:13:34;;;;;;;;;;;;;;;17.96;31.19;95078.13;2066168;28;1049;-69
2022/04/21 05:14:40;;;;;;;;;;;;;;;18.00;31.45;95082.03;2066256;28;1223;-69
2022/04/21 05:15:42;;;;;;;;;;;;;;;18.05;31.47;95087.59;2066242;28;1513;-70
2022/04/21 05:16:44;;;;;;;;;;;;;;;18.07;31.42;95090.88;2065871;28;1049;-69
2022/04/21 05:17:45;;;;;;;;;;;;;;;18.09;31.30;95088.81;2066173;28;1110;-71
2022/04/21 05:19:03;;;;;;;;;;;;;;;18.15;31.30;95089.06;2058071;28;1125;-71
2022/04/21 05:20:05;;;;;;;;;;;;;;;18.17;31.32;95095.84;2067969;28;1017;-70
2022/04/21 05:21:08;;;;;;;;;;;;;;;18.19;31.22;95095.66;2074248;28;1033;-71
2022/04/21 05:22:13;;;;;;;;;;;;;;;18.22;31.22;95103.25;2056388;28;1209;-71
2022/04/21 05:23:16;;;;;;;;;;;;;;;18.24;31.51;95099.38;2065855;28;1363;-71
2022/04/21 05:24:19;;;;;;;;;;;;;;;18.25;31.39;95109.00;2065100;28;1478;-71
2022/04/21 05:25:20;;;;;;;;;;;;;;;18.28;31.51;95100.63;2065665;28;1109;-72
2022/04/21 05:26:22;;;;;;;;;;;;;;;18.29;31.48;95096.13;2074449;28;1049;-72
2022/04/21 05:27:24;;;;;;;;;;;;;;;18.32;31.39;95095.72;2074347;28;1022;-72
2022/04/21 05:28:26;;;;;;;;;;;;;;;18.35;31.32;95095.34;2074286;28;1121;-71
2022/04/21 05:30:58;;;;;;;;;;;;;;;18.40;31.62;95100.91;2074274;28;1970;-72
2022/04/21 05:32:01;;;;;;;;;;;;;;;18.42;31.44;95101.53;2074062;28;1066;-71
2022/04/21 05:33:03;;;;;;;;;;;;;;;18.43;31.62;95097.03;2060942;28;1083;-72
2022/04/21 05:34:04;;;;;;;;;;;;;;;18.44;31.67;95101.31;2060749;28;1162;-72
2022/04/21 05:35:06;;;;;;;;;;;;;;;18.46;31.66;95108.09;2065210;28;1093;-72
2022/04/21 05:36:08;;;;;;;;;;;;;;;18.46;31.58;95101.94;2065188;28;994;-71
2022/04/21 05:37:10;;;;;;;;;;;;;;;18.47;31.67;95101.78;2073839;28;998;-70
2022/04/21 05:38:20;;;;;;;;;;;;;;;18.50;31.52;95105.88;2074398;28;1080;-69
2022/04/21 05:39:22;;;;;;;;;;;;;;;18.51;31.56;95097.69;2074153;28;1024;-71
2022/04/21 05:40:23;;;;;;;;;;;;;;;18.52;31.77;95099.34;2074194;28;1148;-71
2022/04/21 05:41:25;;;;;;;;;;;;;;;18.55;31.70;95098.94;2074207;28;1048;-72
2022/04/21 05:42:29;;;;;;;;;;;;;;;18.58;31.65;95094.22;2065179;28;1137;-70
2022/04/21 05:43:39;;;;;;;;;;;;;;;18.60;31.50;95097.53;2066033;28;1018;-71
2022/04/21 05:44:41;;;;;;;;;;;;;;;18.62;31.74;95091.00;2068083;28;1677;-71
2022/04/21 05:45:43;;;;;;;;;;;;;;;18.65;31.44;95095.09;2071327;28;1339;-66
2022/04/21 05:46:44;;;;;;;;;;;;;;;18.66;31.66;95091.44;2064737;28;1138;-72
2022/04/21 05:47:47;;;;;;;;;;;;;;;18.68;31.52;95089.41;2065638;28;1105;-72
2022/04/21 05:48:48;;;;;;;;;;;;;;;18.69;31.69;95091.03;2074289;28;1081;-72
2022/04/21 05:49:50;;;;;;;;;;;;;;;18.69;31.58;95086.53;2065276;28;1283;-71
2022/04/21 05:50:53;;;;;;;;;;;;;;;17.79;30.49;95084.72;2065576;28;1922;-71
2022/04/21 05:51:56;;;;;;;;;;;;;;;17.73;32.52;95085.47;2074088;28;1156;-71